createdAt,value
2019-04-29T00:00:50.027Z,345.00
2019-04-29T00:03:19.457Z,343.00
2019-04-29T00:05:48.543Z,342.00
2019-04-29T00:08:19.072Z,346.50
2019-04-29T00:10:48.242Z,347.00
2019-04-29T00:13:17.397Z,330.50
2019-04-29T00:16:05.517Z,346.00
2019-04-29T00:18:50.547Z,354.50
2019-04-29T00:21:19.599Z,338.00
2019-04-29T00:23:48.743Z,339.00
2019-04-29T00:26:17.893Z,330.00
2019-04-29T00:28:46.998Z,338.50
2019-04-29T00:31:16.324Z,323.50
2019-04-29T00:33:45.437Z,335.50
2019-04-29T00:36:14.981Z,332.50
2019-04-29T00:38:52.663Z,338.50
2019-04-29T00:41:40.799Z,334.00
2019-04-29T00:44:12.406Z,338.00
2019-04-29T00:46:41.496Z,331.00
2019-04-29T00:49:10.526Z,340.50
2019-04-29T00:51:39.605Z,335.50
2019-04-29T00:54:15.374Z,336.50
2019-04-29T00:56:44.371Z,337.00
2019-04-29T00:59:13.519Z,343.50
2019-04-29T01:01:43.012Z,336.50
2019-04-29T01:04:12.097Z,331.50
2019-04-29T01:06:41.101Z,331.00
2019-04-29T01:09:14.107Z,337.00
2019-04-29T01:11:43.173Z,338.00
2019-04-29T01:14:12.351Z,330.50
2019-04-29T01:16:41.411Z,329.50
2019-04-29T01:19:11.747Z,325.00
2019-04-29T01:21:40.798Z,325.00
2019-04-29T01:24:09.785Z,326.00
2019-04-29T01:26:56.626Z,336.50
2019-04-29T01:29:26.384Z,336.00
2019-04-29T01:31:56.983Z,326.50
2019-04-29T01:34:31.149Z,323.50
2019-04-29T01:37:01.409Z,328.00
2019-04-29T01:39:39.269Z,321.00
2019-04-29T01:42:14.392Z,320.50
2019-04-29T01:44:43.793Z,320.50
2019-04-29T01:47:12.776Z,330.50
2019-04-29T01:49:42.147Z,318.00
2019-04-29T01:52:11.328Z,314.00
2019-04-29T01:54:41.434Z,323.00
2019-04-29T01:57:10.545Z,323.00
2019-04-29T01:59:39.720Z,326.00
2019-04-29T02:02:08.856Z,321.50
2019-04-29T02:04:37.943Z,318.00
2019-04-29T02:07:07.039Z,317.00
2019-04-29T02:09:40.803Z,317.50
2019-04-29T02:12:09.994Z,317.00
2019-04-29T02:14:39.083Z,319.00
2019-04-29T02:17:08.183Z,328.00
2019-04-29T02:19:37.199Z,317.00
2019-04-29T02:22:13.656Z,317.00
2019-04-29T02:24:45.490Z,319.50
2019-04-29T02:27:14.600Z,315.00
2019-04-29T02:29:43.595Z,314.00
2019-04-29T02:32:12.713Z,311.50
2019-04-29T02:34:42.013Z,311.50
2019-04-29T02:37:12.646Z,311.50
2019-04-29T02:39:47.301Z,309.50
2019-04-29T02:42:34.013Z,311.50
2019-04-29T02:45:08.310Z,306.50
2019-04-29T02:47:37.459Z,303.50
2019-04-29T02:50:06.824Z,300.00
2019-04-29T02:52:35.923Z,310.00
2019-04-29T02:55:06.996Z,302.00
2019-04-29T02:57:41.406Z,306.00
2019-04-29T03:00:23.981Z,300.50
2019-04-29T03:02:59.645Z,305.50
2019-04-29T03:05:32.024Z,303.50
2019-04-29T03:08:08.463Z,304.00
2019-04-29T03:10:37.521Z,307.00
2019-04-29T03:13:06.709Z,296.50
2019-04-29T03:15:39.416Z,297.00
2019-04-29T03:18:08.602Z,303.50
2019-04-29T03:20:52.134Z,304.00
2019-04-29T03:23:22.612Z,298.00
2019-04-29T03:25:51.760Z,302.00
2019-04-29T03:28:20.855Z,307.00
2019-04-29T03:30:49.931Z,307.50
2019-04-29T03:33:18.984Z,302.00
2019-04-29T03:35:48.121Z,302.00
2019-04-29T03:38:17.309Z,320.00
2019-04-29T03:40:46.478Z,319.00
2019-04-29T03:43:15.506Z,323.00
2019-04-29T03:45:44.577Z,324.50
2019-04-29T03:48:13.622Z,316.50
2019-04-29T03:50:42.647Z,314.50
2019-04-29T03:53:11.768Z,314.00
2019-04-29T03:55:40.891Z,307.50
2019-04-29T03:58:09.964Z,309.50
2019-04-29T04:00:44.054Z,307.00
2019-04-29T04:03:28.394Z,306.50
2019-04-29T04:06:25.438Z,312.00
2019-04-29T04:09:13.415Z,312.00
2019-04-29T04:11:42.438Z,321.50
2019-04-29T04:14:11.948Z,326.00
2019-04-29T04:17:01.657Z,318.50
2019-04-29T04:19:31.707Z,324.50
2019-04-29T04:22:00.717Z,324.50
2019-04-29T04:24:29.741Z,324.00
2019-04-29T04:26:58.727Z,323.50
2019-04-29T04:29:27.738Z,327.00
2019-04-29T04:31:56.753Z,324.50
2019-04-29T04:34:25.749Z,324.00
2019-04-29T04:36:54.817Z,325.00
2019-04-29T04:39:25.073Z,329.00
2019-04-29T04:41:54.053Z,320.50
2019-04-29T04:44:24.720Z,321.00
2019-04-29T04:46:53.707Z,316.50
2019-04-29T04:49:22.717Z,326.00
2019-04-29T04:51:51.711Z,326.00
2019-04-29T04:54:20.757Z,313.00
2019-04-29T04:56:49.993Z,306.50
2019-04-29T04:59:18.970Z,316.00
2019-04-29T05:01:47.986Z,309.00
2019-04-29T05:04:17.072Z,308.50
2019-04-29T05:06:46.077Z,311.00
2019-04-29T05:09:15.069Z,317.50
2019-04-29T05:11:44.167Z,317.00
2019-04-29T05:14:13.183Z,233.50
2019-04-29T05:16:42.212Z,200.00
2019-04-29T05:19:11.275Z,307.50
2019-04-29T05:21:40.289Z,309.50
2019-04-29T05:24:09.369Z,309.50
2019-04-29T05:26:38.445Z,308.50
2019-04-29T05:29:07.415Z,314.00
2019-04-29T05:31:36.574Z,314.00
2019-04-29T05:34:05.756Z,312.50
2019-04-29T05:36:43.074Z,306.00
2019-04-29T05:39:28.002Z,289.00
2019-04-29T05:41:57.151Z,285.00
2019-04-29T05:44:41.294Z,284.50
2019-04-29T05:47:18.173Z,292.00
2019-04-29T05:50:06.511Z,287.50
2019-04-29T05:52:45.022Z,283.00
2019-04-29T05:55:15.426Z,282.00
2019-04-29T05:57:44.798Z,273.00
2019-04-29T06:00:14.351Z,274.50
2019-04-29T06:02:43.424Z,277.50
2019-04-29T06:05:12.695Z,275.00
2019-04-29T06:07:41.721Z,272.50
2019-04-29T06:10:10.902Z,268.00
2019-04-29T06:12:39.912Z,269.00
2019-04-29T06:15:09.033Z,267.50
2019-04-29T06:17:39.935Z,263.50
2019-04-29T06:20:13.073Z,261.50
2019-04-29T06:22:41.891Z,248.00
2019-04-29T06:25:11.263Z,270.00
2019-04-29T06:27:40.282Z,260.50
2019-04-29T06:30:09.992Z,259.50
2019-04-29T06:32:39.004Z,258.50
2019-04-29T06:35:10.624Z,257.00
2019-04-29T06:37:39.022Z,262.50
2019-04-29T06:40:08.745Z,273.00
2019-04-29T06:42:37.778Z,269.50
2019-04-29T06:45:07.203Z,262.00
2019-04-29T06:47:36.225Z,259.50
2019-04-29T06:50:05.941Z,253.00
2019-04-29T06:52:34.967Z,237.00
2019-04-29T06:55:04.218Z,245.00
2019-04-29T06:57:33.211Z,231.50
2019-04-29T07:00:02.282Z,233.50
2019-04-29T07:02:31.311Z,238.50
2019-04-29T07:05:00.303Z,241.50
2019-04-29T07:07:29.301Z,236.50
2019-04-29T07:09:58.591Z,245.00
2019-04-29T07:12:27.615Z,238.00
2019-04-29T07:14:56.621Z,244.00
2019-04-29T07:17:25.667Z,245.00
2019-04-29T07:19:57.496Z,242.00
2019-04-29T07:22:26.082Z,245.00
2019-04-29T07:24:56.154Z,248.50
2019-04-29T07:27:25.173Z,246.00
2019-04-29T07:29:54.150Z,248.00
2019-04-29T07:32:23.181Z,255.00
2019-04-29T07:34:52.273Z,258.50
2019-04-29T07:37:21.353Z,245.50
2019-04-29T07:39:50.362Z,249.00
2019-04-29T07:42:19.442Z,257.50
2019-04-29T07:45:07.540Z,258.00
2019-04-29T07:47:37.935Z,260.50
2019-04-29T07:50:07.372Z,259.00
2019-04-29T07:52:36.611Z,262.50
2019-04-29T07:55:05.814Z,269.00
2019-04-29T07:57:37.962Z,270.50
2019-04-29T08:00:08.643Z,270.50
2019-04-29T08:02:38.679Z,277.00
2019-04-29T08:05:08.249Z,274.00
2019-04-29T08:07:38.483Z,287.00
2019-04-29T08:10:22.879Z,276.50
2019-04-29T08:12:40.681Z,279.50
2019-04-29T08:15:11.829Z,266.50
2019-04-29T08:17:41.023Z,431.00
2019-04-29T08:20:10.102Z,441.00
2019-04-29T08:22:39.162Z,103.00
2019-04-29T08:25:08.332Z,294.00
2019-04-29T08:27:39.994Z,265.00
2019-04-29T08:30:11.340Z,249.50
2019-04-29T08:32:39.060Z,243.50
2019-04-29T08:35:08.312Z,247.00
2019-04-29T08:37:37.318Z,233.00
2019-04-29T08:40:15.912Z,231.50
2019-04-29T08:42:41.417Z,226.00
2019-04-29T08:45:24.270Z,250.00
2019-04-29T08:47:53.410Z,256.00
2019-04-29T08:50:22.472Z,280.00
2019-04-29T08:52:51.558Z,255.00
2019-04-29T08:55:22.427Z,262.50
2019-04-29T08:57:51.554Z,268.50
2019-04-29T09:00:20.933Z,269.00
2019-04-29T09:02:50.028Z,252.00
2019-04-29T09:05:19.142Z,245.50
2019-04-29T09:07:48.229Z,264.00
2019-04-29T09:10:19.723Z,262.50
2019-04-29T09:12:48.729Z,270.00
2019-04-29T09:15:18.941Z,269.50
2019-04-29T09:17:48.059Z,265.50
2019-04-29T09:20:17.337Z,268.50
2019-04-29T09:22:52.128Z,259.00
2019-04-29T09:25:43.010Z,263.50
2019-04-29T09:28:17.918Z,252.50
2019-04-29T09:30:49.240Z,260.50
2019-04-29T09:33:18.251Z,262.00
2019-04-29T09:35:47.439Z,259.00
2019-04-29T09:38:16.560Z,259.50
2019-04-29T09:40:54.491Z,251.00
2019-04-29T09:43:42.570Z,274.50
2019-04-29T09:46:18.561Z,255.00
2019-04-29T09:48:47.191Z,262.00
2019-04-29T09:51:18.330Z,257.50
2019-04-29T09:53:48.273Z,283.50
2019-04-29T09:56:19.618Z,279.50
2019-04-29T09:58:50.334Z,273.00
2019-04-29T10:01:41.880Z,267.50
2019-04-29T10:04:23.524Z,266.50
2019-04-29T10:06:55.337Z,262.00
2019-04-29T10:09:24.467Z,269.50
2019-04-29T10:11:53.569Z,268.50
2019-04-29T10:14:22.726Z,273.50
2019-04-29T10:16:58.309Z,260.50
2019-04-29T10:19:55.738Z,272.00
2019-04-29T10:22:24.853Z,270.00
2019-04-29T10:24:53.918Z,273.50
2019-04-29T10:27:23.079Z,270.00
2019-04-29T10:29:56.756Z,258.50
2019-04-29T10:32:26.250Z,270.00
2019-04-29T10:34:56.457Z,254.50
2019-04-29T10:37:31.344Z,255.50
2019-04-29T10:40:20.499Z,267.00
2019-04-29T10:43:03.226Z,273.00
2019-04-29T10:45:49.701Z,276.00
2019-04-29T10:48:30.883Z,263.50
2019-04-29T10:51:00.615Z,262.50
2019-04-29T10:53:29.885Z,256.50
2019-04-29T10:56:01.012Z,259.00
2019-04-29T10:58:35.452Z,271.00
2019-04-29T11:01:44.602Z,267.50
2019-04-29T11:04:13.805Z,271.50
2019-04-29T11:06:45.474Z,243.00
2019-04-29T11:09:29.851Z,245.50
2019-04-29T11:11:58.896Z,248.00
2019-04-29T11:14:28.013Z,257.00
2019-04-29T11:16:57.201Z,249.00
2019-04-29T11:19:26.317Z,240.50
2019-04-29T11:21:55.470Z,272.50
2019-04-29T11:24:37.937Z,349.00
2019-04-29T11:27:21.137Z,305.50
2019-04-29T11:29:50.248Z,422.00
2019-04-29T11:32:33.320Z,355.50
2019-04-29T11:35:20.751Z,246.50
2019-04-29T11:37:57.252Z,277.50
2019-04-29T11:40:42.580Z,373.00
2019-04-29T11:42:59.504Z,355.00
2019-04-29T11:45:28.696Z,320.50
2019-04-29T11:47:57.766Z,178.00
2019-04-29T11:50:35.590Z,165.50
2019-04-29T11:53:08.579Z,212.00
2019-04-29T11:55:46.461Z,183.50
2019-04-29T11:58:24.375Z,242.00
2019-04-29T12:01:37.792Z,287.00
2019-04-29T12:04:12.950Z,253.50
2019-04-29T12:06:56.327Z,254.00
2019-04-29T12:09:25.385Z,250.00
2019-04-29T12:11:56.419Z,254.50
2019-04-29T12:15:09.030Z,260.00
2019-04-29T12:17:45.404Z,265.50
2019-04-29T12:20:29.358Z,267.50
2019-04-29T12:22:58.370Z,262.00
2019-04-29T12:25:29.631Z,264.50
2019-04-29T12:28:01.526Z,263.50
2019-04-29T12:30:34.593Z,267.00
2019-04-29T12:33:11.214Z,268.50
2019-04-29T12:35:51.940Z,255.00
2019-04-29T12:38:44.651Z,336.00
2019-04-29T12:41:29.827Z,279.00
2019-04-29T12:44:04.173Z,318.00
2019-04-29T12:46:40.034Z,291.50
2019-04-29T12:49:13.415Z,295.00
2019-04-29T12:51:39.980Z,259.50
2019-04-29T12:54:08.999Z,290.00
2019-04-29T12:56:43.031Z,260.50
2019-04-29T12:59:11.571Z,270.00
2019-04-29T13:02:00.498Z,282.00
2019-04-29T13:04:51.550Z,300.50
2019-04-29T13:07:35.158Z,296.00
2019-04-29T13:10:14.167Z,274.50
2019-04-29T13:12:44.466Z,260.50
2019-04-29T13:15:26.022Z,246.50
2019-04-29T13:18:08.328Z,264.50
2019-04-29T13:20:34.314Z,322.00
2019-04-29T13:23:17.098Z,275.00
2019-04-29T13:25:34.192Z,351.00
2019-04-29T13:28:05.481Z,359.00
2019-04-29T13:30:34.557Z,353.50
2019-04-29T13:33:06.353Z,383.00
2019-04-29T13:35:35.772Z,276.00
2019-04-29T13:38:05.220Z,298.00
2019-04-29T13:40:37.790Z,358.50
2019-04-29T13:43:05.250Z,431.50
2019-04-29T13:45:40.793Z,414.00
2019-04-29T13:48:55.351Z,470.00
2019-04-29T13:51:34.649Z,425.00
2019-04-29T13:53:49.333Z,334.50
2019-04-29T13:56:35.172Z,242.50
2019-04-29T13:58:51.523Z,267.50
2019-04-29T14:02:00.049Z,461.50
2019-04-29T14:04:28.663Z,441.00
2019-04-29T14:06:57.979Z,290.50
2019-04-29T14:09:27.229Z,272.00
2019-04-29T14:12:02.041Z,267.50
2019-04-29T14:14:28.366Z,257.50
2019-04-29T14:17:17.200Z,250.50
2019-04-29T14:19:45.050Z,267.00
2019-04-29T14:22:00.555Z,260.00
2019-04-29T14:24:29.614Z,271.00
2019-04-29T14:26:58.832Z,273.00
2019-04-29T14:29:29.832Z,275.00
2019-04-29T14:32:01.314Z,283.00
2019-04-29T14:34:39.616Z,275.50
2019-04-29T14:37:21.318Z,264.00
2019-04-29T14:39:39.498Z,271.50
2019-04-29T14:42:36.540Z,263.00
2019-04-29T14:45:25.013Z,265.50
2019-04-29T14:48:21.945Z,264.50
2019-04-29T14:50:54.263Z,263.50
2019-04-29T14:53:24.116Z,267.00
2019-04-29T14:55:52.808Z,271.00
2019-04-29T14:58:21.773Z,269.00
2019-04-29T15:01:06.653Z,268.50
2019-04-29T15:03:57.598Z,267.00
2019-04-29T15:06:29.007Z,264.50
2019-04-29T15:08:57.815Z,262.50
2019-04-29T15:11:32.363Z,266.00
2019-04-29T15:14:23.896Z,259.50
2019-04-29T15:16:58.620Z,257.00
2019-04-29T15:19:49.318Z,252.00
2019-04-29T15:22:16.945Z,251.00
2019-04-29T15:24:46.030Z,246.00
2019-04-29T15:27:15.151Z,241.00
2019-04-29T15:29:44.531Z,242.00
2019-04-29T15:32:17.818Z,235.00
2019-04-29T15:34:48.166Z,236.00
2019-04-29T15:37:15.505Z,239.00
2019-04-29T15:39:46.272Z,236.50
2019-04-29T15:42:16.231Z,238.50
2019-04-29T15:44:51.616Z,236.50
2019-04-29T15:47:20.569Z,231.50
2019-04-29T15:49:49.857Z,243.00
2019-04-29T15:52:20.939Z,249.50
2019-04-29T15:54:52.547Z,255.00
2019-04-29T15:57:21.923Z,242.00
2019-04-29T15:59:58.884Z,244.00
2019-04-29T16:02:27.749Z,236.50
2019-04-29T16:05:08.904Z,241.50
2019-04-29T16:08:05.670Z,242.00
2019-04-29T16:11:16.245Z,239.50
2019-04-29T16:13:48.167Z,234.00
2019-04-29T16:16:24.445Z,237.50
2019-04-29T16:18:53.490Z,235.00
2019-04-29T16:21:22.502Z,243.50
2019-04-29T16:23:57.116Z,245.50
2019-04-29T16:26:24.870Z,249.50
2019-04-29T16:28:53.133Z,308.50
2019-04-29T16:31:22.303Z,227.50
2019-04-29T16:33:54.753Z,223.50
2019-04-29T16:36:23.616Z,245.50
2019-04-29T16:38:53.543Z,230.00
2019-04-29T16:41:40.648Z,232.50
2019-04-29T16:44:33.677Z,239.00
2019-04-29T16:46:41.612Z,231.00
2019-04-29T16:49:10.910Z,242.00
2019-04-29T16:51:39.997Z,231.00
2019-04-29T16:54:12.747Z,242.00
2019-04-29T16:56:40.847Z,237.50
2019-04-29T16:59:13.439Z,241.00
2019-04-29T17:01:42.603Z,241.50
2019-04-29T17:04:12.247Z,239.00
2019-04-29T17:06:43.419Z,244.50
2019-04-29T17:09:46.101Z,238.00
2019-04-29T17:12:15.218Z,235.00
2019-04-29T17:15:02.825Z,241.00
2019-04-29T17:17:28.553Z,248.50
2019-04-29T17:19:52.347Z,249.00
2019-04-29T17:22:25.997Z,238.00
2019-04-29T17:24:53.793Z,244.50
2019-04-29T17:27:35.098Z,246.00
2019-04-29T17:30:46.366Z,240.00
2019-04-29T17:35:50.641Z,233.00
2019-04-29T17:38:19.717Z,231.50
2019-04-29T17:40:51.065Z,233.50
2019-04-29T17:43:53.712Z,234.00
2019-04-29T17:46:33.582Z,236.00
2019-04-29T17:49:30.864Z,228.00
2019-04-29T17:52:04.239Z,220.50
2019-04-29T17:54:35.644Z,222.50
2019-04-29T17:57:30.757Z,217.00
2019-04-29T18:00:20.025Z,233.50
2019-04-29T18:03:18.859Z,234.50
2019-04-29T18:06:24.214Z,227.50
2019-04-29T18:09:00.416Z,223.00
2019-04-29T18:11:51.705Z,295.00
2019-04-29T18:14:41.864Z,305.50
2019-04-29T18:17:24.129Z,386.00
2019-04-29T18:20:17.174Z,398.00
2019-04-29T18:23:19.120Z,204.50
2019-04-29T18:26:04.752Z,182.00
2019-04-29T18:28:35.820Z,193.00
2019-04-29T18:31:30.555Z,202.50
2019-04-29T18:34:00.028Z,217.00
2019-04-29T18:36:33.048Z,206.50
2019-04-29T18:39:02.411Z,198.00
2019-04-29T18:41:31.554Z,210.00
2019-04-29T18:44:03.040Z,183.00
2019-04-29T18:46:35.167Z,203.50
2019-04-29T18:49:07.711Z,248.50
2019-04-29T18:51:36.720Z,191.50
2019-04-29T18:54:06.242Z,184.50
2019-04-29T18:56:37.816Z,186.50
2019-04-29T18:59:07.533Z,180.00
2019-04-29T19:01:36.935Z,184.50
2019-04-29T19:04:19.211Z,162.50
2019-04-29T19:06:51.213Z,177.00
2019-04-29T19:09:22.782Z,208.00
2019-04-29T19:11:53.173Z,191.50
2019-04-29T19:14:26.854Z,199.50
2019-04-29T19:17:00.046Z,169.00
2019-04-29T19:19:30.850Z,173.50
2019-04-29T19:22:00.730Z,186.50
2019-04-29T19:24:31.579Z,194.00
2019-04-29T19:27:05.910Z,195.00
2019-04-29T19:29:34.491Z,214.50
2019-04-29T19:32:08.225Z,220.00
2019-04-29T19:34:58.382Z,168.50
2019-04-29T19:37:32.261Z,197.50
2019-04-29T19:40:08.059Z,173.00
2019-04-29T19:42:39.776Z,67.50
2019-04-29T19:45:20.193Z,171.00
2019-04-29T19:47:53.117Z,175.00
2019-04-29T19:50:25.732Z,174.50
2019-04-29T19:52:56.405Z,180.50
2019-04-29T19:55:33.157Z,212.00
2019-04-29T19:58:03.534Z,193.00
2019-04-29T20:00:35.938Z,264.50
2019-04-29T20:03:20.328Z,203.00
2019-04-29T20:05:47.785Z,261.00
2019-04-29T20:08:37.605Z,247.00
2019-04-29T20:10:51.666Z,250.00
2019-04-29T20:13:19.301Z,272.00
2019-04-29T20:16:09.558Z,207.00
2019-04-29T20:18:58.470Z,288.50
2019-04-29T20:21:24.724Z,272.50
2019-04-29T20:23:53.062Z,280.00
2019-04-29T20:26:28.526Z,289.00
2019-04-29T20:29:07.396Z,184.00
2019-04-29T20:31:39.001Z,209.00
2019-04-29T20:34:07.578Z,224.50
2019-04-29T20:36:42.707Z,207.00
2019-04-29T20:39:17.077Z,204.00
2019-04-29T20:41:47.064Z,206.50
2019-04-29T20:44:16.288Z,206.00
2019-04-29T20:47:16.606Z,207.50
2019-04-29T20:49:30.847Z,211.50
2019-04-29T20:52:07.918Z,205.50
2019-04-29T20:54:37.139Z,204.50
2019-04-29T20:57:17.401Z,200.00
2019-04-29T20:59:42.087Z,195.50
2019-04-29T21:02:29.030Z,207.50
2019-04-29T21:04:46.403Z,211.00
2019-04-29T21:07:11.056Z,212.50
2019-04-29T21:09:40.079Z,213.50
2019-04-29T21:12:40.700Z,213.50
2019-04-29T21:15:16.318Z,237.50
2019-04-29T21:17:45.535Z,221.00
2019-04-29T21:20:14.697Z,210.00
2019-04-29T21:22:45.459Z,210.50
2019-04-29T21:25:14.874Z,204.00
2019-04-29T21:27:46.967Z,204.50
2019-04-29T21:30:16.689Z,206.50
2019-04-29T21:32:57.249Z,206.50
2019-04-29T21:35:35.346Z,206.50
2019-04-29T21:38:22.356Z,199.00
2019-04-29T21:41:05.072Z,200.50
2019-04-29T21:43:35.901Z,194.00
2019-04-29T21:46:06.097Z,206.00
2019-04-29T21:48:37.336Z,208.00
2019-04-29T21:51:11.121Z,202.00
2019-04-29T21:53:41.260Z,198.00
2019-04-29T21:56:10.401Z,205.00
2019-04-29T21:58:41.711Z,195.00
2019-04-29T22:01:11.265Z,202.00
2019-04-29T22:03:40.357Z,199.50
2019-04-29T22:06:09.419Z,200.50
2019-04-29T22:08:38.667Z,193.00
2019-04-29T22:11:07.747Z,205.50
2019-04-29T22:13:39.018Z,200.00
2019-04-29T22:16:11.468Z,199.50
2019-04-29T22:18:44.591Z,205.50
2019-04-29T22:21:15.052Z,198.00
2019-04-29T22:23:50.935Z,203.50
2019-04-29T22:26:23.138Z,193.00
2019-04-29T22:28:48.826Z,191.50
2019-04-29T22:31:18.414Z,206.50
2019-04-29T22:33:48.917Z,202.00
2019-04-29T22:36:18.435Z,202.00
2019-04-29T22:38:48.696Z,200.50
2019-04-29T22:41:26.313Z,193.00
2019-04-29T22:43:59.318Z,192.50
2019-04-29T22:46:28.317Z,198.50
2019-04-29T22:48:57.381Z,191.00
2019-04-29T22:51:26.434Z,194.50
2019-04-29T22:53:55.800Z,195.00
2019-04-29T22:56:27.618Z,200.50
2019-04-29T22:58:56.009Z,196.00
2019-04-29T23:01:25.973Z,194.00
2019-04-29T23:03:55.480Z,201.00
2019-04-29T23:06:25.863Z,197.00
2019-04-29T23:08:56.169Z,200.50
2019-04-29T23:11:25.308Z,191.50
2019-04-29T23:13:55.407Z,192.50
2019-04-29T23:16:24.571Z,202.00
2019-04-29T23:18:55.277Z,204.50
2019-04-29T23:21:46.796Z,198.00
2019-04-29T23:24:30.787Z,204.50
2019-04-29T23:26:59.877Z,191.00
2019-04-29T23:29:28.931Z,204.50
2019-04-29T23:31:59.739Z,196.00
2019-04-29T23:34:29.601Z,208.00
2019-04-29T23:36:58.728Z,208.00
2019-04-29T23:39:27.868Z,266.00
2019-04-29T23:41:56.917Z,243.50
2019-04-29T23:44:25.907Z,255.50
2019-04-29T23:46:54.914Z,259.00
2019-04-29T23:49:25.036Z,313.00
2019-04-29T23:51:54.185Z,279.50
2019-04-29T23:54:25.155Z,319.50
2019-04-29T23:57:27.179Z,310.00
